Terminal Aerodrome Forecast
Issued by NWS

Home | Current Version | Previous Version | Text Only | Print | Product List | Glossary On
Versions: 1 2 3 4 5 6 7 8 9 10 11 12
000
FTUS45 KSLC 261735
TAFENV
TAF
KENV 261735Z 2618/2718 13009KT P6SM SCT090 BKN150
     FM262100 17012KT P6SM VCSH SCT100 BKN120
     FM270200 32015G25KT P6SM VCSH FEW070 SCT100
     FM271400 33014KT P6SM SCT070 BKN120=

USA.gov is the U.S. government's official web portal to all federal, state and local government web resources and services.